sensor_id;sensor_type;location;lat;lon;timestamp;pressure;altitude;pressure_sealevel;temperature;humidity
70437;BME280;57877;39.750;-104.894;2023-04-07T00:01:47;84077.99;;;12.14;9.47
70437;BME280;57877;39.750;-104.894;2023-04-07T00:04:13;84081.09;;;12.36;9.30
70437;BME280;57877;39.750;-104.894;2023-04-07T00:06:38;84083.18;;;11.91;9.75
70437;BME280;57877;39.750;-104.894;2023-04-07T00:09:04;84084.19;;;12.12;9.71
70437;BME280;57877;39.750;-104.894;2023-04-07T00:11:29;84087.80;;;11.19;10.24
70437;BME280;57877;39.750;-104.894;2023-04-07T00:13:55;84087.19;;;11.60;10.04
70437;BME280;57877;39.750;-104.894;2023-04-07T00:16:21;84089.42;;;11.70;9.90
70437;BME280;57877;39.750;-104.894;2023-04-07T00:18:47;84088.51;;;11.53;9.93
70437;BME280;57877;39.750;-104.894;2023-04-07T00:21:13;84092.62;;;12.36;9.78
70437;BME280;57877;39.750;-104.894;2023-04-07T00:23:39;84095.55;;;11.94;9.83
70437;BME280;57877;39.750;-104.894;2023-04-07T00:26:05;84096.10;;;11.83;9.96
70437;BME280;57877;39.750;-104.894;2023-04-07T00:28:31;84094.67;;;11.30;10.26
70437;BME280;57877;39.750;-104.894;2023-04-07T00:30:57;84094.16;;;11.93;10.05
70437;BME280;57877;39.750;-104.894;2023-04-07T00:33:23;84094.13;;;11.26;10.60
70437;BME280;57877;39.750;-104.894;2023-04-07T00:35:49;84097.28;;;11.09;10.83
70437;BME280;57877;39.750;-104.894;2023-04-07T00:38:15;84100.37;;;11.03;11.22
70437;BME280;57877;39.750;-104.894;2023-04-07T00:40:41;84097.46;;;11.24;10.64
70437;BME280;57877;39.750;-104.894;2023-04-07T00:43:07;84099.38;;;11.55;10.47
70437;BME280;57877;39.750;-104.894;2023-04-07T00:45:33;84102.28;;;10.89;10.83
70437;BME280;57877;39.750;-104.894;2023-04-07T00:47:59;84105.18;;;10.43;11.01
70437;BME280;57877;39.750;-104.894;2023-04-07T00:50:25;84105.87;;;10.38;11.16
70437;BME280;57877;39.750;-104.894;2023-04-07T00:52:51;84110.50;;;10.75;12.07
70437;BME280;57877;39.750;-104.894;2023-04-07T00:55:17;84109.89;;;10.22;12.01
70437;BME280;57877;39.750;-104.894;2023-04-07T00:57:43;84115.17;;;10.16;12.56
70437;BME280;57877;39.750;-104.894;2023-04-07T01:00:10;84113.16;;;10.27;12.68
70437;BME280;57877;39.750;-104.894;2023-04-07T01:02:40;84115.76;;;11.02;12.31
70437;BME280;57877;39.750;-104.894;2023-04-07T01:05:08;84119.89;;;10.59;12.50
70437;BME280;57877;39.750;-104.894;2023-04-07T01:07:31;84119.27;;;10.70;12.62
70437;BME280;57877;39.750;-104.894;2023-04-07T01:10:00;84124.33;;;9.99;12.94
70437;BME280;57877;39.750;-104.894;2023-04-07T01:12:25;84123.59;;;10.79;12.59
70437;BME280;57877;39.750;-104.894;2023-04-07T01:14:51;84122.47;;;11.13;12.35
70437;BME280;57877;39.750;-104.894;2023-04-07T01:17:13;84121.16;;;11.50;12.51
70437;BME280;57877;39.750;-104.894;2023-04-07T01:19:39;84126.57;;;11.08;12.93
70437;BME280;57877;39.750;-104.894;2023-04-07T01:22:09;84126.08;;;10.51;12.66
70437;BME280;57877;39.750;-104.894;2023-04-07T01:24:45;84127.59;;;10.94;12.36
70437;BME280;57877;39.750;-104.894;2023-04-07T01:26:57;84126.96;;;10.18;12.68
70437;BME280;57877;39.750;-104.894;2023-04-07T01:29:28;84127.01;;;10.22;12.65
70437;BME280;57877;39.750;-104.894;2023-04-07T01:31:48;84128.56;;;10.55;12.88
70437;BME280;57877;39.750;-104.894;2023-04-07T01:34:13;84131.18;;;10.80;12.54
70437;BME280;57877;39.750;-104.894;2023-04-07T01:36:39;84133.16;;;10.60;12.61
70437;BME280;57877;39.750;-104.894;2023-04-07T01:39:11;84135.13;;;10.18;12.70
70437;BME280;57877;39.750;-104.894;2023-04-07T01:41:32;84137.04;;;10.50;12.75
70437;BME280;57877;39.750;-104.894;2023-04-07T01:43:57;84140.13;;;10.37;12.93
70437;BME280;57877;39.750;-104.894;2023-04-07T01:46:23;84143.52;;;9.53;13.85
70437;BME280;57877;39.750;-104.894;2023-04-07T01:48:50;84148.46;;;9.99;14.23
70437;BME280;57877;39.750;-104.894;2023-04-07T01:51:15;84151.53;;;9.59;14.53
70437;BME280;57877;39.750;-104.894;2023-04-07T01:53:41;84154.61;;;10.12;14.23
70437;BME280;57877;39.750;-104.894;2023-04-07T01:56:07;84157.04;;;9.79;14.53
70437;BME280;57877;39.750;-104.894;2023-04-07T01:58:33;84157.58;;;9.59;14.65
70437;BME280;57877;39.750;-104.894;2023-04-07T02:01:04;84160.76;;;10.02;14.48
70437;BME280;57877;39.750;-104.894;2023-04-07T02:03:28;84161.08;;;9.67;14.35
70437;BME280;57877;39.750;-104.894;2023-04-07T02:05:54;84164.25;;;10.21;14.27
70437;BME280;57877;39.750;-104.894;2023-04-07T02:08:18;84164.37;;;9.75;14.37
70437;BME280;57877;39.750;-104.894;2023-04-07T02:10:45;84166.82;;;9.91;14.28
70437;BME280;57877;39.750;-104.894;2023-04-07T02:13:10;84166.50;;;9.82;14.47
70437;BME280;57877;39.750;-104.894;2023-04-07T02:15:35;84169.88;;;9.69;14.53
70437;BME280;57877;39.750;-104.894;2023-04-07T02:18:01;84169.98;;;9.56;14.56
70437;BME280;57877;39.750;-104.894;2023-04-07T02:20:28;84168.00;;;9.42;14.72
70437;BME280;57877;39.750;-104.894;2023-04-07T02:22:53;84166.43;;;9.53;14.96
70437;BME280;57877;39.750;-104.894;2023-04-07T02:25:23;84167.79;;;9.41;14.95
70437;BME280;57877;39.750;-104.894;2023-04-07T02:27:44;84171.66;;;9.67;14.82
70437;BME280;57877;39.750;-104.894;2023-04-07T02:30:11;84175.68;;;9.51;14.88
70437;BME280;57877;39.750;-104.894;2023-04-07T02:32:37;84179.60;;;9.65;14.82
70437;BME280;57877;39.750;-104.894;2023-04-07T02:35:08;84185.47;;;9.62;14.95
70437;BME280;57877;39.750;-104.894;2023-04-07T02:37:29;84189.19;;;9.18;14.97
70437;BME280;57877;39.750;-104.894;2023-04-07T02:39:54;84194.83;;;9.27;14.91
70437;BME280;57877;39.750;-104.894;2023-04-07T02:42:20;84198.23;;;9.29;14.94
70437;BME280;57877;39.750;-104.894;2023-04-07T02:44:46;84200.49;;;9.06;14.89
70437;BME280;57877;39.750;-104.894;2023-04-07T02:47:13;84201.74;;;8.97;14.47
70437;BME280;57877;39.750;-104.894;2023-04-07T02:49:39;84206.88;;;9.23;14.48
70437;BME280;57877;39.750;-104.894;2023-04-07T02:52:05;84209.31;;;8.69;14.30
70437;BME280;57877;39.750;-104.894;2023-04-07T02:54:31;84212.35;;;8.63;14.14
70437;BME280;57877;39.750;-104.894;2023-04-07T02:56:57;84217.32;;;8.77;13.92
70437;BME280;57877;39.750;-104.894;2023-04-07T02:59:23;84218.42;;;8.43;13.93
70437;BME280;57877;39.750;-104.894;2023-04-07T03:01:49;84222.11;;;8.38;14.10
70437;BME280;57877;39.750;-104.894;2023-04-07T03:04:15;84221.68;;;8.15;14.07
70437;BME280;57877;39.750;-104.894;2023-04-07T03:06:40;84224.24;;;7.77;13.92
70437;BME280;57877;39.750;-104.894;2023-04-07T03:09:06;84223.92;;;8.10;13.77
70437;BME280;57877;39.750;-104.894;2023-04-07T03:11:31;84226.85;;;7.63;13.68
70437;BME280;57877;39.750;-104.894;2023-04-07T03:13:56;84230.97;;;7.45;14.31
70437;BME280;57877;39.750;-104.894;2023-04-07T03:16:21;84233.67;;;7.71;13.88
70437;BME280;57877;39.750;-104.894;2023-04-07T03:18:48;84231.15;;;8.26;13.84
70437;BME280;57877;39.750;-104.894;2023-04-07T03:21:13;84231.71;;;7.71;13.74
70437;BME280;57877;39.750;-104.894;2023-04-07T03:23:39;84235.29;;;7.87;13.74
70437;BME280;57877;39.750;-104.894;2023-04-07T03:26:05;84233.72;;;7.83;13.72
70437;BME280;57877;39.750;-104.894;2023-04-07T03:28:31;84233.28;;;7.59;14.00
70437;BME280;57877;39.750;-104.894;2023-04-07T03:30:57;84233.51;;;7.54;14.16
70437;BME280;57877;39.750;-104.894;2023-04-07T03:33:22;84234.48;;;6.93;14.31
70437;BME280;57877;39.750;-104.894;2023-04-07T03:35:49;84234.40;;;7.44;14.26
70437;BME280;57877;39.750;-104.894;2023-04-07T03:38:13;84234.51;;;7.25;14.14
70437;BME280;57877;39.750;-104.894;2023-04-07T03:40:38;84233.57;;;7.27;14.30
70437;BME280;57877;39.750;-104.894;2023-04-07T03:43:03;84232.71;;;6.98;14.44
70437;BME280;57877;39.750;-104.894;2023-04-07T03:47:54;84233.02;;;7.47;14.32
70437;BME280;57877;39.750;-104.894;2023-04-07T03:50:21;84237.04;;;7.73;14.19
70437;BME280;57877;39.750;-104.894;2023-04-07T03:52:47;84237.32;;;7.59;14.20
70437;BME280;57877;39.750;-104.894;2023-04-07T03:55:12;84236.50;;;7.41;14.31
70437;BME280;57877;39.750;-104.894;2023-04-07T03:57:38;84235.10;;;7.19;14.47
70437;BME280;57877;39.750;-104.894;2023-04-07T04:00:04;84236.25;;;7.63;14.37
70437;BME280;57877;39.750;-104.894;2023-04-07T04:02:30;84236.13;;;7.55;14.47
70437;BME280;57877;39.750;-104.894;2023-04-07T04:04:55;84235.02;;;7.54;14.38
70437;BME280;57877;39.750;-104.894;2023-04-07T04:07:20;84232.24;;;7.53;14.40
70437;BME280;57877;39.750;-104.894;2023-04-07T04:09:46;84234.76;;;7.32;14.78
70437;BME280;57877;39.750;-104.894;2023-04-07T04:12:12;84232.71;;;6.88;14.99
70437;BME280;57877;39.750;-104.894;2023-04-07T04:14:38;84232.53;;;6.89;14.97
70437;BME280;57877;39.750;-104.894;2023-04-07T04:17:04;84235.01;;;6.49;15.52
70437;BME280;57877;39.750;-104.894;2023-04-07T04:19:30;84230.99;;;6.82;15.62
70437;BME280;57877;39.750;-104.894;2023-04-07T04:21:56;84231.50;;;6.42;15.88
70437;BME280;57877;39.750;-104.894;2023-04-07T04:24:21;84228.61;;;6.45;15.69
70437;BME280;57877;39.750;-104.894;2023-04-07T04:26:46;84228.97;;;6.62;15.70
70437;BME280;57877;39.750;-104.894;2023-04-07T04:29:12;84226.41;;;6.47;15.88
70437;BME280;57877;39.750;-104.894;2023-04-07T04:31:38;84225.58;;;5.99;16.00
70437;BME280;57877;39.750;-104.894;2023-04-07T04:34:03;84227.08;;;6.16;15.98
70437;BME280;57877;39.750;-104.894;2023-04-07T04:36:29;84225.22;;;6.08;15.77
70437;BME280;57877;39.750;-104.894;2023-04-07T04:38:54;84224.31;;;6.28;15.75
70437;BME280;57877;39.750;-104.894;2023-04-07T04:41:20;84223.53;;;5.63;16.04
70437;BME280;57877;39.750;-104.894;2023-04-07T04:43:46;84223.83;;;5.96;15.92
70437;BME280;57877;39.750;-104.894;2023-04-07T04:46:11;84223.65;;;6.24;15.81
70437;BME280;57877;39.750;-104.894;2023-04-07T04:48:36;84221.57;;;5.93;15.99
70437;BME280;57877;39.750;-104.894;2023-04-07T04:51:01;84219.46;;;5.65;16.09
70437;BME280;57877;39.750;-104.894;2023-04-07T04:53:26;84214.04;;;5.76;16.18
70437;BME280;57877;39.750;-104.894;2023-04-07T04:55:51;84213.09;;;5.63;16.36
70437;BME280;57877;39.750;-104.894;2023-04-07T04:58:17;84210.53;;;5.74;16.27
70437;BME280;57877;39.750;-104.894;2023-04-07T05:00:41;84210.58;;;6.19;16.04
70437;BME280;57877;39.750;-104.894;2023-04-07T05:03:06;84206.04;;;6.37;16.19
70437;BME280;57877;39.750;-104.894;2023-04-07T05:05:32;84205.02;;;6.29;16.24
70437;BME280;57877;39.750;-104.894;2023-04-07T05:07:56;84207.48;;;6.36;16.71
70437;BME280;57877;39.750;-104.894;2023-04-07T05:10:26;84206.78;;;6.04;17.30
70437;BME280;57877;39.750;-104.894;2023-04-07T05:12:51;84205.74;;;6.35;17.31
70437;BME280;57877;39.750;-104.894;2023-04-07T05:15:11;84205.80;;;5.90;17.78
70437;BME280;57877;39.750;-104.894;2023-04-07T05:17:36;84205.10;;;5.54;18.26
70437;BME280;57877;39.750;-104.894;2023-04-07T05:20:02;84207.56;;;5.15;18.91
70437;BME280;57877;39.750;-104.894;2023-04-07T05:22:26;84206.57;;;5.41;18.69
70437;BME280;57877;39.750;-104.894;2023-04-07T05:24:51;84208.97;;;5.75;18.76
70437;BME280;57877;39.750;-104.894;2023-04-07T05:27:16;84209.04;;;5.58;18.83
70437;BME280;57877;39.750;-104.894;2023-04-07T05:29:41;84211.27;;;5.27;19.18
70437;BME280;57877;39.750;-104.894;2023-04-07T05:32:06;84208.99;;;5.57;19.27
70437;BME280;57877;39.750;-104.894;2023-04-07T05:34:31;84212.76;;;5.21;19.42
70437;BME280;57877;39.750;-104.894;2023-04-07T05:36:56;84208.18;;;5.50;19.26
70437;BME280;57877;39.750;-104.894;2023-04-07T05:39:21;84210.27;;;5.51;19.37
70437;BME280;57877;39.750;-104.894;2023-04-07T05:41:46;84211.63;;;5.47;19.40
70437;BME280;57877;39.750;-104.894;2023-04-07T05:44:11;84215.57;;;5.51;19.43
70437;BME280;57877;39.750;-104.894;2023-04-07T05:46:36;84217.05;;;5.45;19.49
70437;BME280;57877;39.750;-104.894;2023-04-07T05:49:02;84218.45;;;5.25;19.45
70437;BME280;57877;39.750;-104.894;2023-04-07T05:51:26;84218.26;;;5.67;19.18
70437;BME280;57877;39.750;-104.894;2023-04-07T05:53:51;84217.75;;;5.78;19.03
70437;BME280;57877;39.750;-104.894;2023-04-07T05:56:17;84217.32;;;5.34;19.18
70437;BME280;57877;39.750;-104.894;2023-04-07T05:58:41;84216.11;;;5.31;19.03
70437;BME280;57877;39.750;-104.894;2023-04-07T06:01:07;84217.38;;;5.52;19.09
70437;BME280;57877;39.750;-104.894;2023-04-07T06:03:32;84214.97;;;5.20;19.32
70437;BME280;57877;39.750;-104.894;2023-04-07T06:05:57;84211.98;;;5.04;19.49
70437;BME280;57877;39.750;-104.894;2023-04-07T06:08:23;84207.70;;;4.97;19.56
70437;BME280;57877;39.750;-104.894;2023-04-07T06:10:49;84204.54;;;4.66;19.95
70437;BME280;57877;39.750;-104.894;2023-04-07T06:13:14;84198.53;;;4.52;20.20
70437;BME280;57877;39.750;-104.894;2023-04-07T06:15:39;84194.92;;;4.41;20.69
70437;BME280;57877;39.750;-104.894;2023-04-07T06:18:04;84196.74;;;4.42;20.60
70437;BME280;57877;39.750;-104.894;2023-04-07T06:20:29;84193.84;;;4.33;20.80
70437;BME280;57877;39.750;-104.894;2023-04-07T06:22:55;84191.03;;;4.41;20.77
70437;BME280;57877;39.750;-104.894;2023-04-07T06:25:19;84192.93;;;3.82;21.06
70437;BME280;57877;39.750;-104.894;2023-04-07T06:27:44;84193.23;;;4.26;21.01
70437;BME280;57877;39.750;-104.894;2023-04-07T06:30:10;84197.17;;;4.55;20.82
70437;BME280;57877;39.750;-104.894;2023-04-07T06:32:34;84200.23;;;4.54;20.89
70437;BME280;57877;39.750;-104.894;2023-04-07T06:34:59;84200.63;;;4.05;21.37
70437;BME280;57877;39.750;-104.894;2023-04-07T06:37:24;84201.89;;;4.39;21.12
70437;BME280;57877;39.750;-104.894;2023-04-07T06:39:49;84204.45;;;4.39;21.17
70437;BME280;57877;39.750;-104.894;2023-04-07T06:42:14;84203.50;;;4.28;21.37
70437;BME280;57877;39.750;-104.894;2023-04-07T06:44:39;84203.38;;;4.08;21.55
70437;BME280;57877;39.750;-104.894;2023-04-07T06:47:05;84204.43;;;4.49;21.30
70437;BME280;57877;39.750;-104.894;2023-04-07T06:49:29;84203.51;;;4.23;21.49
70437;BME280;57877;39.750;-104.894;2023-04-07T06:51:54;84205.58;;;4.19;21.43
70437;BME280;57877;39.750;-104.894;2023-04-07T06:54:20;84206.87;;;4.60;21.33
70437;BME280;57877;39.750;-104.894;2023-04-07T06:56:45;84209.58;;;4.38;21.73
70437;BME280;57877;39.750;-104.894;2023-04-07T06:59:10;84212.45;;;4.18;21.83
70437;BME280;57877;39.750;-104.894;2023-04-07T07:01:35;84211.94;;;4.35;21.75
70437;BME280;57877;39.750;-104.894;2023-04-07T07:04:00;84211.17;;;4.26;21.83
70437;BME280;57877;39.750;-104.894;2023-04-07T07:06:26;84211.41;;;4.09;22.03
70437;BME280;57877;39.750;-104.894;2023-04-07T07:08:50;84209.95;;;4.23;21.96
70437;BME280;57877;39.750;-104.894;2023-04-07T07:11:15;84209.72;;;4.26;21.86
70437;BME280;57877;39.750;-104.894;2023-04-07T07:13:40;84208.13;;;4.37;22.04
70437;BME280;57877;39.750;-104.894;2023-04-07T07:16:05;84207.42;;;4.14;21.92
70437;BME280;57877;39.750;-104.894;2023-04-07T07:18:30;84202.26;;;4.04;22.38
70437;BME280;57877;39.750;-104.894;2023-04-07T07:20:55;84197.38;;;3.56;22.68
70437;BME280;57877;39.750;-104.894;2023-04-07T07:23:20;84200.15;;;3.29;22.94
70437;BME280;57877;39.750;-104.894;2023-04-07T07:25:45;84193.86;;;3.54;22.74
70437;BME280;57877;39.750;-104.894;2023-04-07T07:28:10;84192.47;;;3.71;22.86
70437;BME280;57877;39.750;-104.894;2023-04-07T07:30:37;84190.44;;;3.30;23.37
70437;BME280;57877;39.750;-104.894;2023-04-07T07:33:00;84184.98;;;2.72;24.10
70437;BME280;57877;39.750;-104.894;2023-04-07T07:35:25;84183.87;;;2.85;24.07
70437;BME280;57877;39.750;-104.894;2023-04-07T07:37:51;84184.87;;;2.81;24.36
70437;BME280;57877;39.750;-104.894;2023-04-07T07:40:15;84183.33;;;2.84;24.38
70437;BME280;57877;39.750;-104.894;2023-04-07T07:42:40;84180.47;;;2.93;24.30
70437;BME280;57877;39.750;-104.894;2023-04-07T07:45:07;84185.00;;;3.18;24.03
70437;BME280;57877;39.750;-104.894;2023-04-07T07:47:33;84188.53;;;3.32;23.78
70437;BME280;57877;39.750;-104.894;2023-04-07T07:49:57;84190.06;;;3.39;23.75
70437;BME280;57877;39.750;-104.894;2023-04-07T07:52:22;84189.61;;;3.57;23.85
70437;BME280;57877;39.750;-104.894;2023-04-07T07:54:48;84186.81;;;3.16;23.86
70437;BME280;57877;39.750;-104.894;2023-04-07T07:57:13;84184.01;;;3.27;23.92
70437;BME280;57877;39.750;-104.894;2023-04-07T07:59:38;84180.70;;;3.19;23.92
70437;BME280;57877;39.750;-104.894;2023-04-07T08:02:04;84178.52;;;3.05;24.02
70437;BME280;57877;39.750;-104.894;2023-04-07T08:04:29;84180.59;;;2.95;24.17
70437;BME280;57877;39.750;-104.894;2023-04-07T08:06:55;84180.79;;;3.04;23.93
70437;BME280;57877;39.750;-104.894;2023-04-07T08:09:20;84179.18;;;3.10;23.74
70437;BME280;57877;39.750;-104.894;2023-04-07T08:11:45;84177.22;;;3.28;23.66
70437;BME280;57877;39.750;-104.894;2023-04-07T08:14:10;84174.32;;;3.33;23.65
70437;BME280;57877;39.750;-104.894;2023-04-07T08:16:36;84170.20;;;3.08;23.84
70437;BME280;57877;39.750;-104.894;2023-04-07T08:19:02;84169.70;;;3.28;23.89
70437;BME280;57877;39.750;-104.894;2023-04-07T08:21:28;84168.49;;;2.97;24.20
70437;BME280;57877;39.750;-104.894;2023-04-07T08:23:54;84169.20;;;3.17;24.07
70437;BME280;57877;39.750;-104.894;2023-04-07T08:26:19;84170.06;;;2.91;24.27
70437;BME280;57877;39.750;-104.894;2023-04-07T08:28:44;84170.23;;;2.95;24.15
70437;BME280;57877;39.750;-104.894;2023-04-07T08:31:09;84166.95;;;2.71;23.98
70437;BME280;57877;39.750;-104.894;2023-04-07T08:33:34;84167.47;;;3.00;24.05
70437;BME280;57877;39.750;-104.894;2023-04-07T08:35:59;84165.96;;;3.20;23.85
70437;BME280;57877;39.750;-104.894;2023-04-07T08:38:24;84165.48;;;3.14;23.88
70437;BME280;57877;39.750;-104.894;2023-04-07T08:40:57;84160.97;;;2.99;24.04
70437;BME280;57877;39.750;-104.894;2023-04-07T08:43:17;84158.29;;;3.01;24.06
70437;BME280;57877;39.750;-104.894;2023-04-07T08:45:42;84156.37;;;2.76;24.04
70437;BME280;57877;39.750;-104.894;2023-04-07T08:48:13;84153.03;;;2.77;24.34
70437;BME280;57877;39.750;-104.894;2023-04-07T08:50:32;84150.48;;;2.76;24.41
70437;BME280;57877;39.750;-104.894;2023-04-07T08:53:00;84146.00;;;3.12;24.22
70437;BME280;57877;39.750;-104.894;2023-04-07T08:55:22;84144.27;;;2.80;24.34
70437;BME280;57877;39.750;-104.894;2023-04-07T08:57:47;84142.82;;;2.89;24.54
70437;BME280;57877;39.750;-104.894;2023-04-07T09:00:13;84136.86;;;2.55;24.74
70437;BME280;57877;39.750;-104.894;2023-04-07T09:02:39;84133.04;;;2.32;25.15
70437;BME280;57877;39.750;-104.894;2023-04-07T09:05:05;84130.65;;;2.66;24.79
70437;BME280;57877;39.750;-104.894;2023-04-07T09:07:29;84132.98;;;2.76;24.85
70437;BME280;57877;39.750;-104.894;2023-04-07T09:09:55;84128.19;;;2.85;24.79
70437;BME280;57877;39.750;-104.894;2023-04-07T09:12:20;84125.37;;;2.93;24.82
70437;BME280;57877;39.750;-104.894;2023-04-07T09:14:45;84127.20;;;2.82;24.83
70437;BME280;57877;39.750;-104.894;2023-04-07T09:17:10;84130.82;;;2.42;25.04
70437;BME280;57877;39.750;-104.894;2023-04-07T09:19:35;84131.81;;;2.69;25.15
70437;BME280;57877;39.750;-104.894;2023-04-07T09:22:00;84132.27;;;2.71;25.13
70437;BME280;57877;39.750;-104.894;2023-04-07T09:24:27;84132.51;;;2.59;25.31
70437;BME280;57877;39.750;-104.894;2023-04-07T09:26:51;84134.09;;;2.34;25.68
70437;BME280;57877;39.750;-104.894;2023-04-07T09:29:19;84131.89;;;2.16;25.74
70437;BME280;57877;39.750;-104.894;2023-04-07T09:31:45;84132.83;;;2.57;25.86
70437;BME280;57877;39.750;-104.894;2023-04-07T09:36:38;84132.71;;;2.50;25.68
70437;BME280;57877;39.750;-104.894;2023-04-07T09:38:56;84133.93;;;2.33;25.80
70437;BME280;57877;39.750;-104.894;2023-04-07T09:41:21;84134.57;;;2.44;25.66
70437;BME280;57877;39.750;-104.894;2023-04-07T09:43:46;84138.15;;;2.27;25.80
70437;BME280;57877;39.750;-104.894;2023-04-07T09:46:13;84140.77;;;2.41;25.93
70437;BME280;57877;39.750;-104.894;2023-04-07T09:48:36;84145.13;;;2.45;25.88
70437;BME280;57877;39.750;-104.894;2023-04-07T09:51:06;84148.06;;;2.05;26.32
70437;BME280;57877;39.750;-104.894;2023-04-07T09:55:52;84139.30;;;2.03;26.60
70437;BME280;57877;39.750;-104.894;2023-04-07T09:58:19;84135.13;;;1.52;27.22
70437;BME280;57877;39.750;-104.894;2023-04-07T10:00:44;84135.17;;;1.30;27.49
70437;BME280;57877;39.750;-104.894;2023-04-07T10:03:08;84130.84;;;1.38;27.41
70437;BME280;57877;39.750;-104.894;2023-04-07T10:05:34;84129.50;;;1.23;27.59
70437;BME280;57877;39.750;-104.894;2023-04-07T10:08:00;84129.91;;;1.83;27.22
70437;BME280;57877;39.750;-104.894;2023-04-07T10:10:24;84128.67;;;1.76;27.10
70437;BME280;57877;39.750;-104.894;2023-04-07T10:12:49;84127.79;;;1.79;27.14
70437;BME280;57877;39.750;-104.894;2023-04-07T10:15:13;84126.86;;;1.52;27.13
70437;BME280;57877;39.750;-104.894;2023-04-07T10:17:39;84123.92;;;1.46;27.46
70437;BME280;57877;39.750;-104.894;2023-04-07T10:20:04;84121.71;;;1.47;27.46
70437;BME280;57877;39.750;-104.894;2023-04-07T10:22:29;84122.92;;;1.20;27.89
70437;BME280;57877;39.750;-104.894;2023-04-07T10:24:56;84122.17;;;1.04;28.25
70437;BME280;57877;39.750;-104.894;2023-04-07T10:27:21;84121.11;;;1.23;28.37
70437;BME280;57877;39.750;-104.894;2023-04-07T10:29:47;84123.45;;;1.08;28.43
70437;BME280;57877;39.750;-104.894;2023-04-07T10:32:09;84119.24;;;1.26;28.50
70437;BME280;57877;39.750;-104.894;2023-04-07T10:39:24;84109.28;;;1.32;28.57
70437;BME280;57877;39.750;-104.894;2023-04-07T10:41:49;84107.81;;;1.25;28.54
70437;BME280;57877;39.750;-104.894;2023-04-07T10:49:08;84110.00;;;1.12;29.28
70437;BME280;57877;39.750;-104.894;2023-04-07T10:51:29;84113.28;;;0.85;29.74
70437;BME280;57877;39.750;-104.894;2023-04-07T10:56:19;84114.05;;;0.50;30.24
70437;BME280;57877;39.750;-104.894;2023-04-07T11:01:18;84118.57;;;0.36;30.14
70437;BME280;57877;39.750;-104.894;2023-04-07T11:03:35;84116.06;;;1.08;29.56
70437;BME280;57877;39.750;-104.894;2023-04-07T11:06:03;84116.77;;;0.88;29.72
70437;BME280;57877;39.750;-104.894;2023-04-07T11:08:31;84117.84;;;1.03;29.41
70437;BME280;57877;39.750;-104.894;2023-04-07T11:10:50;84115.77;;;1.02;29.46
70437;BME280;57877;39.750;-104.894;2023-04-07T11:13:15;84117.14;;;0.78;29.39
70437;BME280;57877;39.750;-104.894;2023-04-07T11:15:41;84117.68;;;1.22;29.21
70437;BME280;57877;39.750;-104.894;2023-04-07T11:18:09;84118.87;;;0.82;29.41
70437;BME280;57877;39.750;-104.894;2023-04-07T11:22:59;84124.14;;;0.91;29.10
70437;BME280;57877;39.750;-104.894;2023-04-07T11:25:21;84126.70;;;0.96;29.02
70437;BME280;57877;39.750;-104.894;2023-04-07T11:27:46;84128.59;;;0.83;29.39
70437;BME280;57877;39.750;-104.894;2023-04-07T11:30:12;84130.97;;;0.57;29.36
70437;BME280;57877;39.750;-104.894;2023-04-07T11:32:36;84131.72;;;0.98;28.88
70437;BME280;57877;39.750;-104.894;2023-04-07T11:35:05;84139.15;;;0.96;28.85
70437;BME280;57877;39.750;-104.894;2023-04-07T11:37:26;84140.84;;;0.80;29.06
70437;BME280;57877;39.750;-104.894;2023-04-07T11:39:52;84142.23;;;0.56;29.57
70437;BME280;57877;39.750;-104.894;2023-04-07T11:42:16;84145.29;;;0.62;29.54
70437;BME280;57877;39.750;-104.894;2023-04-07T11:44:45;84146.37;;;0.49;29.63
70437;BME280;57877;39.750;-104.894;2023-04-07T11:47:06;84143.58;;;0.20;29.79
70437;BME280;57877;39.750;-104.894;2023-04-07T11:49:31;84143.43;;;0.35;29.82
70437;BME280;57877;39.750;-104.894;2023-04-07T11:51:59;84143.80;;;0.14;29.61
70437;BME280;57877;39.750;-104.894;2023-04-07T11:54:21;84147.88;;;0.06;30.04
70437;BME280;57877;39.750;-104.894;2023-04-07T11:56:47;84146.94;;;0.18;29.99
70437;BME280;57877;39.750;-104.894;2023-04-07T11:59:18;84145.17;;;0.35;29.87
70437;BME280;57877;39.750;-104.894;2023-04-07T12:01:40;84143.76;;;0.22;29.85
70437;BME280;57877;39.750;-104.894;2023-04-07T12:04:03;84145.93;;;-0.17;29.74
70437;BME280;57877;39.750;-104.894;2023-04-07T12:06:27;84145.80;;;-0.14;29.60
70437;BME280;57877;39.750;-104.894;2023-04-07T12:08:52;84144.23;;;0.27;29.23
70437;BME280;57877;39.750;-104.894;2023-04-07T12:11:17;84143.44;;;0.37;29.10
70437;BME280;57877;39.750;-104.894;2023-04-07T12:13:42;84143.23;;;0.45;28.92
70437;BME280;57877;39.750;-104.894;2023-04-07T12:16:07;84134.83;;;0.46;28.69
70437;BME280;57877;39.750;-104.894;2023-04-07T12:18:32;84134.52;;;0.75;28.41
70437;BME280;57877;39.750;-104.894;2023-04-07T12:20:57;84129.69;;;0.99;28.38
70437;BME280;57877;39.750;-104.894;2023-04-07T12:23:22;84124.78;;;0.83;28.33
70437;BME280;57877;39.750;-104.894;2023-04-07T12:25:47;84123.97;;;0.73;28.35
70437;BME280;57877;39.750;-104.894;2023-04-07T12:28:12;84122.13;;;0.80;28.44
70437;BME280;57877;39.750;-104.894;2023-04-07T12:30:37;84122.34;;;0.62;28.69
70437;BME280;57877;39.750;-104.894;2023-04-07T12:33:02;84125.21;;;0.48;28.15
70437;BME280;57877;39.750;-104.894;2023-04-07T12:35:27;84125.18;;;0.73;28.46
70437;BME280;57877;39.750;-104.894;2023-04-07T12:37:52;84127.46;;;0.73;28.59
70437;BME280;57877;39.750;-104.894;2023-04-07T12:40:17;84130.89;;;0.28;29.01
70437;BME280;57877;39.750;-104.894;2023-04-07T12:42:43;84126.80;;;0.44;28.92
70437;BME280;57877;39.750;-104.894;2023-04-07T12:45:08;84126.33;;;0.20;29.65
70437;BME280;57877;39.750;-104.894;2023-04-07T12:47:32;84126.02;;;0.08;29.43
70437;BME280;57877;39.750;-104.894;2023-04-07T12:49:58;84127.22;;;0.12;29.35
70437;BME280;57877;39.750;-104.894;2023-04-07T12:52:23;84127.17;;;0.44;29.63